Time;durP1;ratioP1;P1;durP2;ratioP2;P2;SDS_P1;SDS_P2;PMS_P1;PMS_P2;Temp;Humidity;BMP_temperature;BMP_pressure;BME280_temperature;BME280_humidity;BME280_pressure;Samples;Min_cycle;Max_cycle;Signal;HPM_P1;HPM_P2
2023/07/07 00:02:24;;;;;;;;;;;;;;;28.70;56.40;100856.19;5078634;28;20373;-87
2023/07/07 00:04:50;;;;;;;;;;;;;;;28.72;55.80;100857.03;5057991;28;20000;-87
2023/07/07 00:07:15;;;;;;;;;;;;;;;28.69;56.21;100857.09;5090253;28;20024;-86
2023/07/07 00:09:41;;;;;;;;;;;;;;;28.66;56.21;100850.00;5089505;28;19970;-87
2023/07/07 00:12:06;;;;;;;;;;;;;;;28.69;56.57;100855.31;5084911;28;19920;-87
2023/07/07 00:14:32;;;;;;;;;;;;;;;28.69;56.17;100846.34;5074568;28;20502;-87
2023/07/07 00:17:01;;;;;;;;;;;;;;;28.69;56.45;100862.47;5073099;28;19921;-87
2023/07/07 00:19:28;;;;;;;;;;;;;;;28.68;56.57;100853.53;5092973;28;19926;-87
2023/07/07 00:21:58;;;;;;;;;;;;;;;28.67;56.22;100848.19;5085921;28;19983;-86
2023/07/07 00:24:24;;;;;;;;;;;;;;;28.68;56.18;100850.84;5061621;28;19973;-87
2023/07/07 00:26:51;;;;;;;;;;;;;;;28.68;56.16;100842.78;5097718;28;19981;-87
2023/07/07 00:29:16;;;;;;;;;;;;;;;28.68;56.17;100847.25;5100288;27;19931;-87
2023/07/07 00:31:42;;;;;;;;;;;;;;;28.67;56.30;100846.38;5097401;28;19920;-88
2023/07/07 00:34:07;;;;;;;;;;;;;;;28.67;56.39;100842.81;5079523;28;19928;-89
2023/07/07 00:36:32;;;;;;;;;;;;;;;28.66;56.32;100838.34;5070033;28;19925;-87
2023/07/07 00:38:58;;;;;;;;;;;;;;;28.66;56.59;100836.56;5062256;28;20916;-87
2023/07/07 00:41:23;;;;;;;;;;;;;;;28.67;56.21;100842.81;5072719;28;19971;-88
2023/07/07 00:44:02;;;;;;;;;;;;;;;28.66;56.06;100839.25;5069071;28;19928;-87
2023/07/07 00:46:28;;;;;;;;;;;;;;;28.66;55.73;100836.56;5096677;28;19916;-87
2023/07/07 00:48:53;;;;;;;;;;;;;;;28.66;56.01;100846.41;5070149;28;19953;-87
2023/07/07 00:51:20;;;;;;;;;;;;;;;28.65;56.31;100841.97;5075696;28;19920;-86
2023/07/07 00:53:45;;;;;;;;;;;;;;;28.62;56.09;100846.47;5092863;28;19920;-87
2023/07/07 00:56:12;;;;;;;;;;;;;;;28.66;56.11;100851.78;5090089;28;20611;-89
2023/07/07 00:58:38;;;;;;;;;;;;;;;28.63;55.93;100848.22;5088198;28;19935;-86
2023/07/07 01:01:05;;;;;;;;;;;;;;;28.65;56.05;100841.97;5079431;28;19921;-89
2023/07/07 01:03:50;;;;;;;;;;;;;;;28.66;55.96;100838.34;5053353;28;20379;-87
2023/07/07 01:06:16;;;;;;;;;;;;;;;28.63;56.23;100847.34;5088901;28;19920;-87
2023/07/07 01:08:42;;;;;;;;;;;;;;;28.62;56.28;100849.16;5093424;28;20008;-87
2023/07/07 01:11:08;;;;;;;;;;;;;;;28.66;55.86;100847.31;5057107;28;19921;-87
2023/07/07 01:13:34;;;;;;;;;;;;;;;28.65;55.90;100848.22;5072569;28;19927;-87
2023/07/07 01:16:14;;;;;;;;;;;;;;;28.59;56.50;100843.81;5094867;28;20321;-87
2023/07/07 01:18:39;;;;;;;;;;;;;;;28.60;55.72;100847.44;5087788;28;20019;-86
2023/07/07 01:21:32;;;;;;;;;;;;;;;28.61;56.47;100833.94;5081481;28;20035;-87
2023/07/07 01:24:07;;;;;;;;;;;;;;;28.61;56.31;100831.25;5081106;28;19916;-88
2023/07/07 01:26:44;;;;;;;;;;;;;;;28.63;55.54;100831.22;5082831;28;19977;-88
2023/07/07 01:29:28;;;;;;;;;;;;;;;28.62;55.38;100826.78;5084251;28;19927;-88
2023/07/07 01:31:56;;;;;;;;;;;;;;;28.62;55.54;100829.47;5097534;28;19923;-88
2023/07/07 01:34:21;;;;;;;;;;;;;;;28.60;55.51;100829.50;5059592;28;19923;-88
2023/07/07 01:36:47;;;;;;;;;;;;;;;28.55;55.06;100826.00;5052093;28;19920;-87
2023/07/07 01:39:12;;;;;;;;;;;;;;;28.53;55.95;100819.78;5079896;28;20351;-87
2023/07/07 01:41:38;;;;;;;;;;;;;;;28.56;55.76;100819.72;5089952;28;20362;-87
2023/07/07 01:44:06;;;;;;;;;;;;;;;28.57;56.09;100826.84;5075761;28;19913;-88
2023/07/07 01:46:35;;;;;;;;;;;;;;;28.56;55.72;100821.53;5076816;28;19971;-87
2023/07/07 01:49:02;;;;;;;;;;;;;;;28.54;56.09;100826.03;5054537;28;20461;-88
2023/07/07 01:51:31;;;;;;;;;;;;;;;28.57;55.92;100818.78;5062177;28;19921;-87
2023/07/07 01:53:57;;;;;;;;;;;;;;;28.59;55.08;100806.22;5061836;28;19943;-87
2023/07/07 01:56:25;;;;;;;;;;;;;;;28.57;55.43;100817.91;5093234;28;19967;-88
2023/07/07 01:58:51;;;;;;;;;;;;;;;28.57;55.63;100818.78;5107045;28;20007;-88
2023/07/07 02:01:17;;;;;;;;;;;;;;;28.58;56.24;100823.25;5080727;28;19917;-88
2023/07/07 02:03:42;;;;;;;;;;;;;;;28.56;55.26;100826.91;5088495;28;19920;-88
2023/07/07 02:06:15;;;;;;;;;;;;;;;28.57;56.11;100820.59;5099446;28;19995;-87
2023/07/07 02:08:40;;;;;;;;;;;;;;;28.56;56.13;100822.41;5075749;28;19916;-87
2023/07/07 02:11:06;;;;;;;;;;;;;;;28.53;56.34;100816.19;5099297;28;19932;-86
2023/07/07 02:13:33;;;;;;;;;;;;;;;28.51;55.94;100815.34;5100891;28;19916;-87
2023/07/07 02:15:58;;;;;;;;;;;;;;;28.53;56.10;100809.06;5055725;28;19920;-88
2023/07/07 02:18:26;;;;;;;;;;;;;;;28.54;56.12;100809.94;5089051;28;20242;-87
2023/07/07 02:20:55;;;;;;;;;;;;;;;28.54;56.02;100816.19;5055384;28;20316;-88
2023/07/07 02:23:21;;;;;;;;;;;;;;;28.53;56.43;100819.78;5092137;28;19922;-87
2023/07/07 02:25:46;;;;;;;;;;;;;;;28.50;55.77;100816.28;5093963;28;19920;-87
2023/07/07 02:28:11;;;;;;;;;;;;;;;28.55;55.96;100819.75;5096471;27;19994;-88
2023/07/07 02:30:37;;;;;;;;;;;;;;;28.55;56.24;100823.31;5089042;28;19975;-88
2023/07/07 02:33:03;;;;;;;;;;;;;;;28.53;55.87;100821.56;5074199;28;19920;-89
2023/07/07 02:35:31;;;;;;;;;;;;;;;28.53;56.45;100825.16;5066912;28;19920;-89
2023/07/07 02:37:56;;;;;;;;;;;;;;;28.56;56.39;100829.59;5058362;28;19928;-89
2023/07/07 02:40:21;;;;;;;;;;;;;;;28.54;55.99;100826.03;5055788;28;20419;-89
2023/07/07 02:42:48;;;;;;;;;;;;;;;28.49;56.28;100828.81;5071436;28;20023;-87
2023/07/07 02:45:14;;;;;;;;;;;;;;;28.51;56.38;100829.69;5058938;28;19920;-89
2023/07/07 02:47:39;;;;;;;;;;;;;;;28.49;55.96;100838.66;5081764;28;19955;-89
2023/07/07 02:50:05;;;;;;;;;;;;;;;28.52;56.11;100831.44;5073621;28;19917;-88
2023/07/07 02:52:30;;;;;;;;;;;;;;;28.54;56.48;100836.78;5100837;28;20396;-88
2023/07/07 02:54:56;;;;;;;;;;;;;;;28.49;55.90;100838.66;5097747;28;19927;-88
2023/07/07 02:57:21;;;;;;;;;;;;;;;28.49;56.05;100835.97;5083787;28;20460;-88
2023/07/07 02:59:46;;;;;;;;;;;;;;;28.51;56.09;100823.41;5073482;28;19927;-87
2023/07/07 03:02:12;;;;;;;;;;;;;;;28.51;56.76;100831.47;5076203;28;20301;-88
2023/07/07 03:04:37;;;;;;;;;;;;;;;28.51;56.39;100842.22;5085273;28;19919;-90
2023/07/07 03:07:04;;;;;;;;;;;;;;;28.47;56.12;100832.41;5093534;28;20357;-88
2023/07/07 03:09:29;;;;;;;;;;;;;;;28.48;55.97;100827.00;5074690;28;19920;-87
2023/07/07 03:11:54;;;;;;;;;;;;;;;28.44;55.68;100841.41;5054640;28;19920;-88
2023/07/07 03:14:20;;;;;;;;;;;;;;;28.48;56.09;100839.56;5088818;28;19988;-88
2023/07/07 03:16:51;;;;;;;;;;;;;;;28.48;56.15;100836.88;5100197;28;19928;-88
2023/07/07 03:19:17;;;;;;;;;;;;;;;28.46;56.05;100839.59;5075161;28;19924;-89
2023/07/07 03:21:42;;;;;;;;;;;;;;;28.45;56.14;100844.97;5056916;28;19920;-89
2023/07/07 03:24:08;;;;;;;;;;;;;;;28.44;56.22;100844.09;5082203;28;19960;-88
2023/07/07 03:26:33;;;;;;;;;;;;;;;28.42;55.89;100837.88;5088488;28;19960;-87
2023/07/07 03:28:58;;;;;;;;;;;;;;;28.38;55.73;100842.41;5071381;28;19928;-86
2023/07/07 03:31:25;;;;;;;;;;;;;;;28.45;56.05;100839.59;5065363;28;19931;-86
2023/07/07 03:33:52;;;;;;;;;;;;;;;28.43;56.01;100842.34;5057350;28;19986;-87
2023/07/07 03:36:19;;;;;;;;;;;;;;;28.42;55.98;100838.75;5076264;28;20377;-87
2023/07/07 03:38:44;;;;;;;;;;;;;;;28.37;55.69;100835.28;5093567;28;19931;-88
2023/07/07 03:41:14;;;;;;;;;;;;;;;28.40;56.03;100834.31;5072032;28;19924;-87
2023/07/07 03:43:39;;;;;;;;;;;;;;;28.41;55.70;100837.00;5089838;28;19972;-87
2023/07/07 03:46:05;;;;;;;;;;;;;;;28.43;55.82;100850.41;5049245;28;19924;-87
2023/07/07 03:48:30;;;;;;;;;;;;;;;28.38;55.64;100853.16;5058575;28;19975;-87
2023/07/07 03:50:56;;;;;;;;;;;;;;;28.28;56.16;100843.50;5088366;28;19976;-89
2023/07/07 03:53:22;;;;;;;;;;;;;;;28.36;56.07;100844.25;5093377;28;19920;-87
2023/07/07 03:55:47;;;;;;;;;;;;;;;28.31;56.14;100846.13;5099324;28;19923;-87
2023/07/07 03:58:12;;;;;;;;;;;;;;;28.37;56.58;100843.31;5070036;28;20011;-88
2023/07/07 04:00:38;;;;;;;;;;;;;;;28.35;56.49;100845.16;5072008;28;19959;-87
2023/07/07 04:03:03;;;;;;;;;;;;;;;28.31;56.36;100846.13;5094946;28;20404;-88
2023/07/07 04:05:29;;;;;;;;;;;;;;;28.37;56.26;100850.50;5094200;28;19995;-90
2023/07/07 04:07:54;;;;;;;;;;;;;;;28.38;55.73;100852.25;5095182;28;20412;-88
2023/07/07 04:10:19;;;;;;;;;;;;;;;28.37;56.17;100846.00;5074648;28;20404;-87
2023/07/07 04:12:45;;;;;;;;;;;;;;;28.36;56.43;100860.38;5082249;28;20376;-89
2023/07/07 04:15:10;;;;;;;;;;;;;;;28.39;56.44;100854.94;5079988;28;20384;-88
2023/07/07 04:17:36;;;;;;;;;;;;;;;28.35;56.02;100855.03;5094372;28;19924;-89
2023/07/07 04:20:02;;;;;;;;;;;;;;;28.39;56.80;100854.94;5077043;28;20002;-89
2023/07/07 04:22:29;;;;;;;;;;;;;;;28.38;56.07;100854.94;5090065;28;20446;-89
2023/07/07 04:25:08;;;;;;;;;;;;;;;28.38;56.61;100854.94;5089336;28;19928;-90
2023/07/07 04:27:33;;;;;;;;;;;;;;;28.34;56.47;100855.91;5071309;28;19952;-89
2023/07/07 04:29:58;;;;;;;;;;;;;;;28.36;56.08;100856.78;5086621;28;20039;-90
2023/07/07 04:32:24;;;;;;;;;;;;;;;28.37;56.52;100856.75;5077099;28;20365;-89
2023/07/07 04:34:49;;;;;;;;;;;;;;;28.38;56.17;100855.84;5076035;28;20303;-89
2023/07/07 04:37:15;;;;;;;;;;;;;;;28.35;56.16;100861.28;5069387;28;20430;-88
2023/07/07 04:39:41;;;;;;;;;;;;;;;28.38;56.62;100866.56;5100884;28;19940;-89
2023/07/07 04:42:07;;;;;;;;;;;;;;;28.34;55.97;100866.66;5078215;28;19982;-88
2023/07/07 04:44:32;;;;;;;;;;;;;;;28.37;56.28;100861.25;5054531;28;19924;-88
2023/07/07 04:46:57;;;;;;;;;;;;;;;28.36;56.39;100864.84;5077193;28;20308;-87
2023/07/07 04:49:23;;;;;;;;;;;;;;;28.38;56.32;100865.69;5073850;28;19924;-88
2023/07/07 04:51:48;;;;;;;;;;;;;;;28.39;56.85;100864.81;5083305;28;20389;-86
2023/07/07 04:54:14;;;;;;;;;;;;;;;28.40;56.24;100861.19;5086008;28;19928;-84
2023/07/07 04:56:40;;;;;;;;;;;;;;;28.45;56.09;100871.84;5078313;28;19927;-84
2023/07/07 04:59:06;;;;;;;;;;;;;;;28.43;56.59;100875.47;5090120;28;19966;-86
2023/07/07 05:01:37;;;;;;;;;;;;;;;28.41;56.60;100877.28;5081837;28;20290;-87
2023/07/07 05:04:05;;;;;;;;;;;;;;;28.37;56.57;100870.19;5063282;28;19943;-86
2023/07/07 05:06:55;;;;;;;;;;;;;;;28.40;56.68;100866.56;5071428;28;19921;-90
2023/07/07 05:09:30;;;;;;;;;;;;;;;28.39;56.54;100875.53;5096852;28;20003;-87
2023/07/07 05:12:16;;;;;;;;;;;;;;;28.42;56.58;100872.78;5071474;28;19920;-87
2023/07/07 05:15:26;;;;;;;;;;;;;;;28.37;55.97;100877.38;5084378;28;19930;-88
2023/07/07 05:18:09;;;;;;;;;;;;;;;28.41;56.28;100869.22;5092388;28;20404;-86
2023/07/07 05:21:25;;;;;;;;;;;;;;;28.39;56.84;100873.75;5098440;28;19920;-86
2023/07/07 05:27:01;;;;;;;;;;;;;;;28.34;56.64;100881.00;5088604;28;20408;-85
2023/07/07 05:39:06;;;;;;;;;;;;;;;28.38;56.25;100889.88;5012844;28;19996;-85
2023/07/07 05:51:12;;;;;;;;;;;;;;;28.44;56.09;100895.13;5016622;28;19948;-87
2023/07/07 05:57:10;;;;;;;;;;;;;;;28.43;56.24;100896.94;5031536;28;19963;-85
2023/07/07 06:06:33;;;;;;;;;;;;;;;28.37;56.42;100891.69;4933985;29;20324;-88
2023/07/07 06:22:07;;;;;;;;;;;;;;;28.40;55.59;100888.03;4976257;28;20009;-84
2023/07/07 06:31:47;;;;;;;;;;;;;;;28.41;56.76;100892.53;5063331;28;20009;-83
2023/07/07 06:34:13;;;;;;;;;;;;;;;28.42;56.06;100888.91;5086133;28;19917;-84
2023/07/07 06:36:40;;;;;;;;;;;;;;;28.45;56.32;100896.00;5083031;28;20010;-84
2023/07/07 06:39:11;;;;;;;;;;;;;;;28.45;56.70;100898.69;5075372;28;19916;-84
2023/07/07 06:41:41;;;;;;;;;;;;;;;28.39;55.19;100892.53;5056878;28;19923;-84
2023/07/07 06:50:38;;;;;;;;;;;;;;;28.39;54.78;100892.53;5076445;28;19962;-85
2023/07/07 06:53:03;;;;;;;;;;;;;;;28.43;55.40;100894.25;5046648;28;19913;-85
2023/07/07 06:55:29;;;;;;;;;;;;;;;28.47;56.12;100887.03;5049813;28;20663;-85
2023/07/07 06:57:54;;;;;;;;;;;;;;;28.46;55.87;100885.25;5045008;28;19926;-86
2023/07/07 07:00:21;;;;;;;;;;;;;;;28.46;56.53;100897.81;5072737;28;19927;-84
2023/07/07 07:02:47;;;;;;;;;;;;;;;28.49;54.86;100895.09;5093444;28;19912;-84
2023/07/07 07:05:12;;;;;;;;;;;;;;;28.49;55.20;100908.50;5071902;28;19916;-86
2023/07/07 07:11:00;;;;;;;;;;;;;;;28.45;54.97;100904.06;5072358;28;19919;-84
2023/07/07 07:13:54;;;;;;;;;;;;;;;28.39;56.44;100895.22;5082654;28;19923;-85
2023/07/07 07:16:46;;;;;;;;;;;;;;;28.48;54.77;100906.72;5080265;28;19916;-85
2023/07/07 07:19:43;;;;;;;;;;;;;;;;;;;;;
2023/07/07 07:22:19;;;;;;;;;;;;;;;28.53;55.75;100919.22;5026505;28;19921;-84
2023/07/07 07:24:56;;;;;;;;;;;;;;;28.52;55.42;100920.09;5029757;28;19925;-85
2023/07/07 07:40:06;;;;;;;;;;;;;;;28.51;54.98;100938.94;4904125;29;20024;-83
2023/07/07 07:43:07;;;;;;;;;;;;;;;28.52;56.28;100940.72;4907802;29;19919;-83
2023/07/07 07:45:42;;;;;;;;;;;;;;;28.55;55.97;100944.22;4894419;29;19919;-84
2023/07/07 07:48:10;;;;;;;;;;;;;;;28.58;56.34;100935.25;4871959;29;19916;-85
2023/07/07 07:50:42;;;;;;;;;;;;;;;28.53;55.32;100935.31;4888233;29;20412;-84
2023/07/07 07:53:29;;;;;;;;;;;;;;;28.56;54.51;100950.50;4877197;29;19920;-84
2023/07/07 07:59:14;;;;;;;;;;;;;;;28.58;55.34;100959.41;4948331;29;19930;-84
2023/07/07 08:01:50;;;;;;;;;;;;;;;28.59;55.75;100955.81;4951376;29;19965;-84
2023/07/07 08:04:30;;;;;;;;;;;;;;;28.60;54.83;100957.59;4950474;28;19925;-84
2023/07/07 08:07:32;;;;;;;;;;;;;;;28.31;54.44;100910.59;4959249;28;19964;-84
2023/07/07 08:13:04;;;;;;;;;;;;;;;28.61;55.07;100956.66;4952363;28;20502;-85
2023/07/07 08:15:38;;;;;;;;;;;;;;;28.63;54.64;100968.28;4989668;28;19968;-85
2023/07/07 08:18:06;;;;;;;;;;;;;;;28.63;55.13;100968.28;4993217;28;19918;-85
2023/07/07 08:20:37;;;;;;;;;;;;;;;28.63;55.42;100958.41;5025541;28;21325;-85
2023/07/07 08:23:05;;;;;;;;;;;;;;;28.65;54.99;100957.50;5048961;28;19921;-85
2023/07/07 08:25:34;;;;;;;;;;;;;;;28.62;55.16;100961.16;5072701;28;19924;-86
2023/07/07 08:28:14;;;;;;;;;;;;;;;28.67;55.06;100958.38;5053967;28;19917;-85
2023/07/07 08:30:41;;;;;;;;;;;;;;;28.67;55.46;100967.31;5061147;28;19928;-85
2023/07/07 08:33:06;;;;;;;;;;;;;;;28.68;55.79;100965.50;5046876;28;19920;-85
2023/07/07 08:35:36;;;;;;;;;;;;;;;28.71;55.41;100960.09;5069053;28;20029;-85
2023/07/07 08:38:02;;;;;;;;;;;;;;;28.68;55.53;100963.72;5058464;28;19916;-85
2023/07/07 08:40:29;;;;;;;;;;;;;;;28.68;54.87;100955.66;5035205;28;19936;-85
2023/07/07 08:42:54;;;;;;;;;;;;;;;28.69;55.07;100952.03;5060657;28;20394;-84
2023/07/07 08:45:21;;;;;;;;;;;;;;;28.71;54.37;100957.41;5044379;28;19917;-85
2023/07/07 08:48:11;;;;;;;;;;;;;;;28.72;54.87;100962.72;5037875;28;19913;-85
2023/07/07 08:51:02;;;;;;;;;;;;;;;28.72;54.94;100960.03;5042282;28;20314;-85
2023/07/07 08:53:47;;;;;;;;;;;;;;;28.73;55.19;100951.06;5051437;28;19921;-85
2023/07/07 08:56:19;;;;;;;;;;;;;;;28.75;54.74;100970.75;5046184;28;19921;-85
2023/07/07 08:58:57;;;;;;;;;;;;;;;28.75;55.28;100965.38;5050750;28;20294;-85
2023/07/07 09:02:04;;;;;;;;;;;;;;;28.77;54.70;100963.53;5050877;28;19952;-87
2023/07/07 09:04:41;;;;;;;;;;;;;;;28.78;55.96;100964.44;5047032;28;19917;-86
2023/07/07 09:07:36;;;;;;;;;;;;;;;28.80;55.67;100960.78;5072502;28;19916;-86
2023/07/07 09:10:29;;;;;;;;;;;;;;;28.79;54.79;100958.16;5071863;28;19913;-84
2023/07/07 09:13:16;;;;;;;;;;;;;;;28.80;55.03;100959.91;5064193;28;20405;-85
2023/07/07 09:16:03;;;;;;;;;;;;;;;28.79;54.69;100969.78;5067759;28;20372;-85
2023/07/07 09:19:06;;;;;;;;;;;;;;;28.83;54.72;100958.06;5053634;28;19924;-85
2023/07/07 09:28:00;;;;;;;;;;;;;;;28.82;54.73;100955.41;5074591;28;20309;-86
2023/07/07 09:30:47;;;;;;;;;;;;;;;28.81;54.91;100953.63;5080209;28;19916;-86
2023/07/07 09:33:15;;;;;;;;;;;;;;;28.85;56.11;100958.03;5084283;28;19923;-84
2023/07/07 09:36:03;;;;;;;;;;;;;;;28.88;54.62;100955.28;5092161;28;20317;-85
2023/07/07 09:39:07;;;;;;;;;;;;;;;28.86;54.27;100949.03;5103983;28;20305;-85
2023/07/07 09:44:55;;;;;;;;;;;;;;;28.92;55.28;100948.94;5074431;28;19974;-87
2023/07/07 09:47:43;;;;;;;;;;;;;;;28.92;54.61;100953.44;5088155;28;19970;-85
2023/07/07 09:50:40;;;;;;;;;;;;;;;28.93;55.16;100942.63;5080828;28;19916;-85
2023/07/07 09:53:14;;;;;;;;;;;;;;;28.92;55.16;100940.00;5067515;28;20413;-86
2023/07/07 09:55:40;;;;;;;;;;;;;;;28.96;55.22;100944.41;5051029;28;19915;-89
2023/07/07 09:58:53;;;;;;;;;;;;;;;28.95;56.00;100939.91;5096144;28;19919;-88
2023/07/07 10:01:19;;;;;;;;;;;;;;;28.98;54.77;100940.75;5063430;28;20011;-86
2023/07/07 10:03:45;;;;;;;;;;;;;;;28.99;55.04;100937.13;5094661;28;20011;-88
2023/07/07 10:06:22;;;;;;;;;;;;;;;28.97;55.22;100938.97;5087767;28;19911;-85
2023/07/07 10:08:47;;;;;;;;;;;;;;;28.97;55.46;100938.97;5055650;28;19916;-88
2023/07/07 10:11:21;;;;;;;;;;;;;;;29.00;55.45;100944.28;5077293;28;20294;-86
2023/07/07 10:13:50;;;;;;;;;;;;;;;29.02;55.39;100936.22;5063146;28;19943;-85
2023/07/07 10:16:22;;;;;;;;;;;;;;;29.00;55.45;100938.91;5092976;28;19947;-85
2023/07/07 10:19:07;;;;;;;;;;;;;;;29.03;55.77;100937.97;5083393;28;20417;-85
2023/07/07 10:21:34;;;;;;;;;;;;;;;29.09;54.85;100934.28;5097369;28;19921;-88
2023/07/07 10:23:59;;;;;;;;;;;;;;;29.01;55.29;100938.00;5097336;28;19924;-85
2023/07/07 10:26:25;;;;;;;;;;;;;;;29.05;54.76;100940.63;5081509;28;19912;-86
2023/07/07 10:29:05;;;;;;;;;;;;;;;29.06;55.72;100934.31;5091489;27;20014;-86
2023/07/07 10:31:34;;;;;;;;;;;;;;;29.09;55.46;100928.91;5065506;28;19981;-87
2023/07/07 10:34:00;;;;;;;;;;;;;;;29.03;57.33;100919.16;5064037;28;19943;-85
2023/07/07 10:36:27;;;;;;;;;;;;;;;29.06;55.82;100918.19;5072934;28;19916;-85
2023/07/07 10:38:59;;;;;;;;;;;;;;;29.07;56.40;100914.59;5102538;27;20019;-84
2023/07/07 10:41:27;;;;;;;;;;;;;;;29.12;54.73;100912.72;5099150;27;19926;-84
2023/07/07 10:44:18;;;;;;;;;;;;;;;29.07;54.00;100910.09;5078521;28;19923;-82
2023/07/07 10:50:24;;;;;;;;;;;;;;;29.20;52.43;100908.94;5085885;28;20271;-84
2023/07/07 10:53:23;;;;;;;;;;;;;;;29.20;53.26;100906.25;5105825;28;19918;-85
2023/07/07 10:56:04;;;;;;;;;;;;;;;29.22;53.34;100909.81;5078882;28;20468;-85
2023/07/07 10:58:55;;;;;;;;;;;;;;;29.21;53.09;100899.06;5088381;28;20388;-85
2023/07/07 11:01:20;;;;;;;;;;;;;;;29.26;53.11;100897.19;5086986;28;20306;-84
2023/07/07 11:04:08;;;;;;;;;;;;;;;29.27;53.65;100890.00;5092382;28;20046;-85
2023/07/07 11:10:08;;;;;;;;;;;;;;;29.26;53.07;100877.47;5075896;28;20561;-83
2023/07/07 11:13:08;;;;;;;;;;;;;;;29.30;53.40;100874.69;5093029;28;19924;-85
2023/07/07 11:16:10;;;;;;;;;;;;;;;29.31;53.39;100865.69;5092653;28;19941;-83
2023/07/07 11:18:47;;;;;;;;;;;;;;;29.26;52.05;100864.91;5082054;28;19916;-83
2023/07/07 11:21:31;;;;;;;;;;;;;;;29.31;52.87;100863.00;5088602;28;19916;-84
2023/07/07 11:24:34;;;;;;;;;;;;;;;29.31;52.65;100859.41;5037040;28;20248;-84
2023/07/07 11:30:20;;;;;;;;;;;;;;;29.34;53.21;100854.00;5072107;28;19919;-84
2023/07/07 11:32:49;;;;;;;;;;;;;;;29.34;52.83;100852.19;5065150;28;19932;-85
2023/07/07 11:35:49;;;;;;;;;;;;;;;29.32;51.64;100847.75;5067435;28;20007;-85
2023/07/07 11:38:33;;;;;;;;;;;;;;;29.32;52.78;100842.38;5052159;28;19982;-85
2023/07/07 11:40:59;;;;;;;;;;;;;;;29.25;52.06;100841.59;5079586;28;20278;-84
2023/07/07 11:43:27;;;;;;;;;;;;;;;29.30;52.32;100846.91;5059031;28;19962;-84
2023/07/07 11:46:01;;;;;;;;;;;;;;;29.33;52.24;100850.41;5040769;28;19935;-84
2023/07/07 11:52:14;;;;;;;;;;;;;;;29.36;52.10;100853.03;5058491;28;20515;-83
2023/07/07 11:55:05;;;;;;;;;;;;;;;29.40;52.22;100849.34;5045753;28;19917;-82
2023/07/07 11:57:38;;;;;;;;;;;;;;;29.43;52.10;100838.50;5051413;28;19912;-81
2023/07/07 12:00:25;;;;;;;;;;;;;;;29.41;52.26;100844.84;5074969;28;19978;-83
2023/07/07 12:06:31;;;;;;;;;;;;;;;29.42;52.47;100844.81;5054522;28;20314;-81
2023/07/07 12:12:06;;;;;;;;;;;;;;;29.42;51.59;100836.75;5051019;28;19920;-83
2023/07/07 12:14:42;;;;;;;;;;;;;;;29.45;50.35;100834.91;5051313;28;20420;-83
2023/07/07 12:17:43;;;;;;;;;;;;;;;;;;;;;
2023/07/07 12:20:15;;;;;;;;;;;;;;;29.40;51.90;100822.44;5043624;28;19917;-81
2023/07/07 12:22:45;;;;;;;;;;;;;;;29.41;52.21;100829.59;5045059;28;19935;-82
2023/07/07 12:25:30;;;;;;;;;;;;;;;29.47;52.17;100825.88;5070825;28;19990;-82
2023/07/07 12:30:58;;;;;;;;;;;;;;;29.49;51.60;100821.34;5052869;28;19931;-84
2023/07/07 12:33:29;;;;;;;;;;;;;;;29.48;52.00;100824.06;5070802;28;19912;-84
2023/07/07 12:36:15;;;;;;;;;;;;;;;29.50;51.85;100827.59;5090883;28;20312;-83
2023/07/07 12:39:07;;;;;;;;;;;;;;;29.50;51.13;100828.47;5057205;28;19912;-83
2023/07/07 12:43:16;;;;;;;;;;;;;;;29.50;50.92;100827.59;5049452;28;19920;-83
2023/07/07 12:45:18;;;;;;;;;;;;;;;29.49;51.12;100837.50;5011831;28;19944;-82
2023/07/07 12:47:48;;;;;;;;;;;;;;;29.50;51.51;100841.94;5070857;28;20002;-84
2023/07/07 12:50:33;;;;;;;;;;;;;;;29.49;51.68;100842.00;5093027;28;19912;-83
2023/07/07 12:52:59;;;;;;;;;;;;;;;29.51;51.38;100834.78;5099922;28;20374;-82
2023/07/07 12:55:45;;;;;;;;;;;;;;;29.50;51.36;100828.47;5071233;28;20309;-84
2023/07/07 12:58:11;;;;;;;;;;;;;;;29.49;51.63;100825.84;5068341;28;19912;-84
2023/07/07 13:00:41;;;;;;;;;;;;;;;29.48;51.64;100840.22;5069014;28;19921;-82
2023/07/07 13:03:09;;;;;;;;;;;;;;;29.48;52.04;100843.78;5085139;28;19920;-84
2023/07/07 13:05:46;;;;;;;;;;;;;;;29.45;52.66;100834.91;5070860;28;20043;-84
2023/07/07 13:08:14;;;;;;;;;;;;;;;29.45;52.35;100851.06;5072969;28;19967;-82
2023/07/07 13:10:39;;;;;;;;;;;;;;;29.47;52.13;100844.72;5086395;28;19917;-84
2023/07/07 13:13:15;;;;;;;;;;;;;;;29.43;52.28;100837.63;5071136;28;19919;-82
2023/07/07 13:15:40;;;;;;;;;;;;;;;29.46;52.48;100834.84;5077069;28;20046;-84
2023/07/07 13:18:32;;;;;;;;;;;;;;;29.43;52.85;100825.06;5085344;28;19994;-85
2023/07/07 13:20:58;;;;;;;;;;;;;;;29.43;53.05;100848.41;5075760;28;20421;-87
2023/07/07 13:23:28;;;;;;;;;;;;;;;29.43;52.86;100848.41;5085913;28;19932;-83
2023/07/07 13:25:54;;;;;;;;;;;;;;;29.45;52.02;100841.16;5069285;28;19920;-84
2023/07/07 13:28:21;;;;;;;;;;;;;;;29.46;51.99;100848.31;5068889;28;20309;-83
2023/07/07 13:30:50;;;;;;;;;;;;;;;29.45;52.45;100854.63;5071370;28;19919;-82
2023/07/07 13:33:17;;;;;;;;;;;;;;;29.45;52.22;100846.56;5095745;28;19997;-81
2023/07/07 13:35:45;;;;;;;;;;;;;;;29.46;52.10;100840.25;5051884;28;20371;-82
2023/07/07 13:38:14;;;;;;;;;;;;;;;29.48;51.70;100832.13;5085774;28;19920;-83
2023/07/07 13:40:40;;;;;;;;;;;;;;;29.42;52.38;100835.84;5066821;28;19924;-82
2023/07/07 13:43:06;;;;;;;;;;;;;;;29.41;52.57;100834.09;5070513;28;19920;-83
2023/07/07 13:45:34;;;;;;;;;;;;;;;29.42;52.51;100833.16;5072999;28;19913;-83
2023/07/07 13:48:00;;;;;;;;;;;;;;;29.42;52.01;100834.06;5052535;28;19927;-82
2023/07/07 13:50:27;;;;;;;;;;;;;;;29.45;51.71;100829.53;5076618;28;19917;-82
2023/07/07 13:52:56;;;;;;;;;;;;;;;29.42;51.72;100828.69;5074023;28;19920;-85
2023/07/07 13:56:10;;;;;;;;;;;;;;;;;;;;;
2023/07/07 13:58:49;;;;;;;;;;;;;;;29.40;51.83;100830.53;5080519;28;19913;-82
2023/07/07 14:01:21;;;;;;;;;;;;;;;29.37;52.03;100835.97;5083435;28;19999;-84
2023/07/07 14:03:58;;;;;;;;;;;;;;;29.41;51.18;100832.28;5072863;28;19916;-84
2023/07/07 14:06:24;;;;;;;;;;;;;;;29.40;51.56;100822.44;5070668;28;19995;-83
2023/07/07 14:08:50;;;;;;;;;;;;;;;29.40;51.08;100826.91;5074334;28;19916;-84
2023/07/07 14:11:20;;;;;;;;;;;;;;;29.42;50.82;100815.22;5094766;28;19986;-84
2023/07/07 14:14:02;;;;;;;;;;;;;;;29.41;50.89;100809.88;5089022;28;19922;-86
2023/07/07 14:16:44;;;;;;;;;;;;;;;29.43;50.87;100802.66;5072583;28;19992;-86
2023/07/07 14:19:20;;;;;;;;;;;;;;;29.41;50.78;100809.88;5056967;28;20020;-85
2023/07/07 14:22:09;;;;;;;;;;;;;;;29.42;50.77;100820.63;5107422;28;19912;-84
2023/07/07 14:28:14;;;;;;;;;;;;;;;29.42;50.72;100826.00;5076075;28;19923;-85
2023/07/07 14:31:02;;;;;;;;;;;;;;;29.43;50.51;100848.41;5099052;28;20372;-85
2023/07/07 14:33:28;;;;;;;;;;;;;;;29.42;51.01;100882.50;5087567;28;19912;-83
2023/07/07 14:35:56;;;;;;;;;;;;;;;29.41;50.88;100877.13;5062963;28;20022;-83
2023/07/07 14:38:22;;;;;;;;;;;;;;;29.40;52.23;100894.19;5071624;28;19916;-82
2023/07/07 14:40:48;;;;;;;;;;;;;;;29.43;51.70;100899.50;5073151;28;20356;-82
2023/07/07 14:43:18;;;;;;;;;;;;;;;29.43;51.37;100904.91;5100872;28;19912;-81
2023/07/07 14:45:43;;;;;;;;;;;;;;;29.40;50.81;100896.88;5073456;28;19994;-83
2023/07/07 14:48:16;;;;;;;;;;;;;;;29.41;50.66;100901.34;5099966;28;19955;-83
2023/07/07 14:50:44;;;;;;;;;;;;;;;29.43;50.99;100895.00;5099576;28;19959;-85
2023/07/07 14:53:17;;;;;;;;;;;;;;;29.43;51.25;100900.38;5083775;28;19924;-84
2023/07/07 14:55:47;;;;;;;;;;;;;;;29.41;52.02;100899.53;5072001;28;20015;-83
2023/07/07 14:58:16;;;;;;;;;;;;;;;29.39;51.49;100897.81;5089912;28;19917;-85
2023/07/07 15:00:46;;;;;;;;;;;;;;;29.39;51.04;100893.31;5070856;28;19971;-83
2023/07/07 15:03:28;;;;;;;;;;;;;;;29.38;51.31;100896.94;5056206;28;19967;-85
2023/07/07 15:06:22;;;;;;;;;;;;;;;29.39;50.77;100900.50;5084567;28;19959;-86
2023/07/07 15:08:54;;;;;;;;;;;;;;;29.37;50.93;100908.59;5051861;28;19919;-83